createdAt,value
2017-01-12T00:00:28.269Z,5.83
2017-01-12T00:01:33.439Z,5.88
2017-01-12T00:02:38.637Z,5.83
2017-01-12T00:03:43.837Z,5.83
2017-01-12T00:04:48.044Z,5.83
2017-01-12T00:05:53.230Z,5.92
2017-01-12T00:06:59.405Z,5.85
2017-01-12T00:08:04.613Z,5.89
2017-01-12T00:09:09.816Z,5.98
2017-01-12T00:10:13.037Z,6
2017-01-12T00:11:17.305Z,6
2017-01-12T00:12:23.463Z,5.89
2017-01-12T00:13:28.664Z,5.96
2017-01-12T00:14:33.868Z,6.01
2017-01-12T00:15:40.027Z,5.92
2017-01-12T00:16:43.259Z,5.95
2017-01-12T00:17:49.415Z,5.95
2017-01-12T00:18:54.752Z,5.96
2017-01-12T00:19:59.940Z,6.01
2017-01-12T00:21:05.141Z,6
2017-01-12T00:22:10.340Z,5.95
2017-01-12T00:23:15.507Z,6.04
2017-01-12T00:24:20.804Z,5.95
2017-01-12T00:25:25.640Z,5.86
2017-01-12T00:26:31.815Z,5.88
2017-01-12T00:27:37.991Z,5.85
2017-01-12T00:28:43.214Z,5.85
2017-01-12T00:29:48.401Z,5.88
2017-01-12T00:30:52.605Z,5.86
2017-01-12T00:31:57.798Z,5.86
2017-01-12T00:33:02.025Z,5.91
2017-01-12T00:34:07.229Z,5.89
2017-01-12T00:35:11.479Z,6.03
2017-01-12T00:36:16.673Z,5.98
2017-01-12T00:37:21.836Z,5.96
2017-01-12T00:38:27.996Z,6
2017-01-12T00:39:34.171Z,5.96
2017-01-12T00:40:39.403Z,6.01
2017-01-12T00:41:43.569Z,5.98
2017-01-12T00:42:48.764Z,5.98
2017-01-12T00:43:53.023Z,6.01
2017-01-12T00:44:57.231Z,6
2017-01-12T00:46:02.402Z,5.98
2017-01-12T00:47:07.596Z,5.95
2017-01-12T00:48:12.795Z,5.91
2017-01-12T00:49:18.106Z,5.95
2017-01-12T00:50:23.302Z,6.01
2017-01-12T00:51:28.512Z,6.01
2017-01-12T00:52:34.677Z,5.95
2017-01-12T00:53:40.846Z,6.01
2017-01-12T00:54:47.036Z,5.93
2017-01-12T00:55:52.198Z,6
2017-01-12T00:56:58.376Z,6.04
2017-01-12T00:58:02.609Z,6.01
2017-01-12T00:59:08.785Z,6.01
2017-01-12T01:00:14.972Z,5.92
2017-01-12T01:01:19.176Z,5.77
2017-01-12T01:02:25.339Z,5.73
2017-01-12T01:03:30.513Z,5.74
2017-01-12T01:04:36.680Z,5.6
2017-01-12T01:05:39.911Z,5.55
2017-01-12T01:06:46.076Z,5.48
2017-01-12T01:07:50.277Z,5.45
2017-01-12T01:08:53.528Z,5.46
2017-01-12T01:09:57.756Z,5.52
2017-01-12T01:11:03.925Z,5.43
2017-01-12T01:12:10.088Z,5.49
2017-01-12T01:13:16.251Z,5.45
2017-01-12T01:14:21.442Z,5.46
2017-01-12T01:15:26.023Z,5.38
2017-01-12T01:16:32.350Z,5.37
2017-01-12T01:17:37.539Z,5.38
2017-01-12T01:18:42.751Z,5.35
2017-01-12T01:19:48.919Z,5.3
2017-01-12T01:20:54.114Z,5.28
2017-01-12T01:21:58.345Z,5.32
2017-01-12T01:23:03.542Z,5.17
2017-01-12T01:24:09.704Z,5.07
2017-01-12T01:25:14.907Z,5.12
2017-01-12T01:26:21.105Z,5.12
2017-01-12T01:27:27.272Z,5.09
2017-01-12T01:28:32.465Z,5.05
2017-01-12T01:29:37.652Z,5.17
2017-01-12T01:30:43.826Z,5.13
2017-01-12T01:31:49.980Z,5.12
2017-01-12T01:32:56.147Z,5.1
2017-01-12T01:34:01.411Z,5.16
2017-01-12T01:35:06.620Z,5.17
2017-01-12T01:36:12.784Z,5.13
2017-01-12T01:37:17.985Z,5.23
2017-01-12T01:38:21.299Z,5.28
2017-01-12T01:39:24.538Z,5.25
2017-01-12T01:40:28.773Z,5.3
2017-01-12T01:41:34.988Z,5.34
2017-01-12T01:42:40.127Z,5.48
2017-01-12T01:43:46.296Z,5.48
2017-01-12T01:44:52.461Z,5.48
2017-01-12T01:45:58.646Z,5.43
2017-01-12T01:47:04.819Z,5.52
2017-01-12T01:48:11.101Z,5.5
2017-01-12T01:49:15.209Z,5.52
2017-01-12T01:50:19.441Z,5.56
2017-01-12T01:51:25.606Z,5.45
2017-01-12T01:52:31.771Z,5.63
2017-01-12T01:53:35.016Z,5.59
2017-01-12T01:54:40.202Z,5.53
2017-01-12T01:55:43.470Z,5.48
2017-01-12T01:56:48.675Z,5.53
2017-01-12T01:57:53.879Z,5.59
2017-01-12T01:58:58.202Z,5.59
2017-01-12T02:00:03.396Z,5.59
2017-01-12T02:01:08.273Z,5.53
2017-01-12T02:02:13.473Z,5.64
2017-01-12T02:03:17.708Z,5.55
2017-01-12T02:04:23.872Z,5.64
2017-01-12T02:05:30.044Z,5.64
2017-01-12T02:06:34.240Z,5.74
2017-01-12T02:07:39.531Z,5.66
2017-01-12T02:08:45.811Z,5.66
2017-01-12T02:09:50.039Z,5.63
2017-01-12T02:10:54.235Z,5.57
2017-01-12T02:11:58.479Z,5.55
2017-01-12T02:13:03.682Z,5.48
2017-01-12T02:14:08.874Z,5.4
2017-01-12T02:15:13.217Z,5.41
2017-01-12T02:16:19.376Z,5.48
2017-01-12T02:17:24.575Z,5.45
2017-01-12T02:18:29.770Z,5.43
2017-01-12T02:19:35.011Z,5.37
2017-01-12T02:20:40.213Z,5.32
2017-01-12T02:21:45.412Z,5.3
2017-01-12T02:22:51.653Z,5.23
2017-01-12T02:23:56.880Z,5.27
2017-01-12T02:25:03.020Z,5.13
2017-01-12T02:26:08.276Z,5.13
2017-01-12T02:27:13.639Z,5.16
2017-01-12T02:28:17.255Z,5.05
2017-01-12T02:29:22.458Z,5.04
2017-01-12T02:30:27.653Z,4.99
2017-01-12T02:31:31.907Z,5.01
2017-01-12T02:32:37.111Z,4.92
2017-01-12T02:33:41.463Z,4.95
2017-01-12T02:34:47.633Z,4.95
2017-01-12T02:35:53.800Z,4.86
2017-01-12T02:36:59.968Z,4.86
2017-01-12T02:38:05.274Z,4.75
2017-01-12T02:39:09.501Z,4.76
2017-01-12T02:40:13.727Z,4.75
2017-01-12T02:41:19.987Z,4.77
2017-01-12T02:42:25.183Z,4.76
2017-01-12T02:43:28.425Z,4.7
2017-01-12T02:44:34.593Z,4.64
2017-01-12T02:45:39.795Z,4.59
2017-01-12T02:46:44.996Z,4.61
2017-01-12T02:47:50.199Z,4.57
2017-01-12T02:48:56.332Z,4.64
2017-01-12T02:50:00.555Z,4.7
2017-01-12T02:51:04.820Z,4.65
2017-01-12T02:52:10.980Z,4.65
2017-01-12T02:53:16.188Z,4.62
2017-01-12T02:54:22.359Z,4.59
2017-01-12T02:55:28.527Z,4.55
2017-01-12T02:56:33.701Z,4.59
2017-01-12T02:57:38.984Z,4.65
2017-01-12T02:58:45.170Z,4.65
2017-01-12T02:59:51.323Z,4.64
2017-01-12T03:00:57.481Z,4.62
2017-01-12T03:02:01.779Z,4.69
2017-01-12T03:03:05.015Z,4.69
2017-01-12T03:04:10.216Z,4.88
2017-01-12T03:05:15.418Z,4.86
2017-01-12T03:06:21.582Z,4.86
2017-01-12T03:07:26.776Z,4.88
2017-01-12T03:08:32.947Z,4.8
2017-01-12T03:09:39.111Z,4.89
2017-01-12T03:10:44.312Z,4.8
2017-01-12T03:11:49.504Z,4.92
2017-01-12T03:12:54.682Z,4.98
2017-01-12T03:13:59.871Z,4.96
2017-01-12T03:15:06.040Z,5.07
2017-01-12T03:16:12.205Z,4.99
2017-01-12T03:17:16.414Z,5.05
2017-01-12T03:18:22.666Z,4.96
2017-01-12T03:19:28.829Z,5.04
2017-01-12T03:20:34.030Z,4.98
2017-01-12T03:21:40.191Z,4.88
2017-01-12T03:22:46.354Z,4.88
2017-01-12T03:24:57.728Z,4.84
2017-01-12T03:26:01.931Z,4.76
2017-01-12T03:27:07.119Z,4.76
2017-01-12T03:28:12.314Z,4.62
2017-01-12T03:29:17.530Z,4.64
2017-01-12T03:30:22.729Z,4.57
2017-01-12T03:31:27.925Z,4.54
2017-01-12T03:32:33.164Z,4.59
2017-01-12T03:33:37.394Z,4.67
2017-01-12T03:34:42.699Z,4.64
2017-01-12T03:35:48.862Z,4.65
2017-01-12T03:36:54.059Z,4.73
2017-01-12T03:38:00.233Z,4.67
2017-01-12T03:39:05.479Z,4.77
2017-01-12T03:40:11.660Z,4.86
2017-01-12T03:41:17.830Z,4.86
2017-01-12T03:42:23.020Z,4.95
2017-01-12T03:43:28.204Z,4.91
2017-01-12T03:44:34.485Z,5.02
2017-01-12T03:45:40.665Z,5.02
2017-01-12T03:46:43.928Z,5.04
2017-01-12T03:47:49.125Z,5.04
2017-01-12T03:48:53.336Z,5.02
2017-01-12T03:49:58.536Z,4.98
2017-01-12T03:51:02.772Z,5.05
2017-01-12T03:52:08.941Z,5.09
2017-01-12T03:53:12.206Z,4.95
2017-01-12T03:54:18.342Z,5.13
2017-01-12T03:55:23.536Z,5.1
2017-01-12T03:56:27.744Z,5.07
2017-01-12T03:57:32.911Z,5.17
2017-01-12T03:58:39.085Z,5.09
2017-01-12T03:59:44.250Z,5.1
2017-01-12T04:00:49.844Z,5.12
2017-01-12T04:01:55.040Z,5.07
2017-01-12T04:03:01.210Z,5.13
2017-01-12T04:04:07.378Z,5.13
2017-01-12T04:05:13.537Z,5.14
2017-01-12T04:06:18.705Z,5.13
2017-01-12T04:07:24.875Z,5.16
2017-01-12T04:08:31.054Z,5.16
2017-01-12T04:09:36.253Z,5.1
2017-01-12T04:10:42.414Z,5.2
2017-01-12T04:11:48.596Z,5.2
2017-01-12T04:12:53.780Z,5.23
2017-01-12T04:13:57.979Z,5.22
2017-01-12T04:15:04.149Z,5.23
2017-01-12T04:16:10.311Z,5.22
2017-01-12T04:17:13.591Z,5.14
2017-01-12T04:18:19.743Z,5.23
2017-01-12T04:19:25.991Z,5.32
2017-01-12T04:20:32.116Z,5.25
2017-01-12T04:21:36.355Z,5.27
2017-01-12T04:22:40.558Z,5.17
2017-01-12T04:23:45.753Z,5.2
2017-01-12T04:24:50.922Z,5.19
2017-01-12T04:25:55.201Z,5.12
2017-01-12T04:26:59.425Z,5.19
2017-01-12T04:28:04.678Z,5.23
2017-01-12T04:29:08.887Z,5.27
2017-01-12T04:30:14.090Z,5.31
2017-01-12T04:31:19.289Z,5.28
2017-01-12T04:32:25.450Z,5.22
2017-01-12T04:33:30.614Z,5.25
2017-01-12T04:34:35.816Z,5.12
2017-01-12T04:35:42.100Z,5.17
2017-01-12T04:37:53.468Z,5.19
2017-01-12T04:38:57.704Z,5.17
2017-01-12T04:40:03.873Z,5.23
2017-01-12T04:41:08.123Z,5.25
2017-01-12T04:42:14.294Z,5.23
2017-01-12T04:43:19.520Z,5.17
2017-01-12T04:44:24.711Z,5.28
2017-01-12T04:45:29.891Z,5.16
2017-01-12T04:46:35.151Z,5.2
2017-01-12T04:47:40.345Z,5.23
2017-01-12T04:48:45.515Z,5.27
2017-01-12T04:49:51.697Z,5.17
2017-01-12T04:50:57.891Z,5.22
2017-01-12T04:52:03.062Z,5.28
2017-01-12T04:53:07.282Z,5.25
2017-01-12T04:54:13.442Z,5.22
2017-01-12T04:55:17.693Z,5.32
2017-01-12T04:56:22.970Z,5.35
2017-01-12T04:57:28.117Z,5.3
2017-01-12T04:58:34.286Z,5.28
2017-01-12T04:59:40.459Z,5.23
2017-01-12T05:00:45.708Z,5.27
2017-01-12T05:01:50.903Z,5.31
2017-01-12T05:02:57.204Z,5.25
2017-01-12T05:04:01.369Z,5.3
2017-01-12T05:05:06.571Z,5.23
2017-01-12T05:06:12.731Z,5.25
2017-01-12T05:07:17.933Z,5.28
2017-01-12T05:08:23.133Z,5.31
2017-01-12T05:09:28.309Z,5.25
2017-01-12T05:10:31.544Z,5.3
2017-01-12T05:11:37.715Z,5.37
2017-01-12T05:12:43.639Z,5.31
2017-01-12T05:13:48.914Z,5.35
2017-01-12T05:14:54.061Z,5.32
2017-01-12T05:16:00.232Z,5.32
2017-01-12T05:17:04.203Z,5.41
2017-01-12T05:18:09.400Z,5.43
2017-01-12T05:19:14.596Z,5.38
2017-01-12T05:20:20.857Z,5.48
2017-01-12T05:21:27.032Z,5.46
2017-01-12T05:22:32.207Z,5.45
2017-01-12T05:23:38.366Z,5.4
2017-01-12T05:24:42.666Z,5.43
2017-01-12T05:25:47.867Z,5.41
2017-01-12T05:26:54.031Z,5.53
2017-01-12T05:28:00.210Z,5.49
2017-01-12T05:29:04.440Z,5.48
2017-01-12T05:30:09.632Z,5.52
2017-01-12T05:31:15.799Z,5.48
2017-01-12T05:32:21.977Z,5.52
2017-01-12T05:33:28.180Z,5.53
2017-01-12T05:34:34.340Z,5.5
2017-01-12T05:35:39.537Z,5.49
2017-01-12T05:36:45.696Z,5.53
2017-01-12T05:37:51.866Z,5.5
2017-01-12T05:38:58.035Z,5.41
2017-01-12T05:40:03.230Z,5.43
2017-01-12T05:41:07.460Z,5.41
2017-01-12T05:42:12.628Z,5.48
2017-01-12T05:43:16.863Z,5.34
2017-01-12T05:44:23.105Z,5.37
2017-01-12T05:45:29.245Z,5.3
2017-01-12T05:46:35.408Z,5.28
2017-01-12T05:47:39.602Z,5.2
2017-01-12T05:48:43.862Z,5.19
2017-01-12T05:49:50.004Z,5.23
2017-01-12T05:50:54.253Z,5.17
2017-01-12T05:51:59.424Z,5.07
2017-01-12T05:53:04.628Z,5.16
2017-01-12T05:54:10.791Z,5.22
2017-01-12T05:55:15.986Z,5.14
2017-01-12T05:56:20.228Z,5.2
2017-01-12T05:57:26.385Z,5.22
2017-01-12T05:58:32.565Z,5.23
2017-01-12T05:59:38.733Z,5.3
2017-01-12T06:00:43.930Z,5.17
2017-01-12T06:01:49.134Z,5.3
2017-01-12T06:02:54.333Z,5.3
2017-01-12T06:03:59.507Z,5.27
2017-01-12T06:05:04.713Z,5.27
2017-01-12T06:06:09.912Z,5.28
2017-01-12T06:07:14.117Z,5.4
2017-01-12T06:08:20.278Z,5.35
2017-01-12T06:09:24.539Z,5.38
2017-01-12T06:10:28.710Z,5.37
2017-01-12T06:11:33.885Z,5.31
2017-01-12T06:12:38.083Z,5.3
2017-01-12T06:13:44.459Z,5.3
2017-01-12T06:14:50.719Z,5.31
2017-01-12T06:15:55.925Z,5.32
2017-01-12T06:17:00.102Z,5.27
2017-01-12T06:18:03.338Z,5.31
2017-01-12T06:19:09.516Z,5.35
2017-01-12T06:20:15.729Z,5.38
2017-01-12T06:21:20.876Z,5.4
2017-01-12T06:22:24.145Z,5.32
2017-01-12T06:23:29.347Z,5.4
2017-01-12T06:24:34.645Z,5.32
2017-01-12T06:25:38.841Z,5.32
2017-01-12T06:26:44.038Z,5.45
2017-01-12T06:27:49.241Z,5.49
2017-01-12T06:28:55.400Z,5.43
2017-01-12T06:30:00.681Z,5.38
2017-01-12T06:31:05.850Z,5.45
2017-01-12T06:32:12.035Z,5.45
2017-01-12T06:33:17.279Z,5.32
2017-01-12T06:34:22.478Z,5.43
2017-01-12T06:35:27.713Z,5.46
2017-01-12T06:36:33.889Z,5.46
2017-01-12T06:37:38.124Z,5.49
2017-01-12T06:38:43.272Z,5.38
2017-01-12T06:39:48.470Z,5.45
2017-01-12T06:40:52.678Z,5.45
2017-01-12T06:41:55.948Z,5.43
2017-01-12T06:42:59.277Z,5.4
2017-01-12T06:45:10.621Z,5.46
2017-01-12T06:46:14.851Z,5.41
2017-01-12T06:47:21.021Z,5.41
2017-01-12T06:48:26.921Z,5.46
2017-01-12T06:49:33.048Z,5.37
2017-01-12T06:50:38.247Z,5.34
2017-01-12T06:51:43.448Z,5.34
2017-01-12T06:52:47.678Z,5.37
2017-01-12T06:53:52.877Z,5.31
2017-01-12T06:54:59.044Z,5.31
2017-01-12T06:56:04.333Z,5.37
2017-01-12T06:57:10.494Z,5.35
2017-01-12T06:58:14.692Z,5.32
2017-01-12T06:59:19.904Z,5.37
2017-01-12T07:00:26.079Z,5.28
2017-01-12T07:01:31.304Z,5.27
2017-01-12T07:02:34.514Z,5.3
2017-01-12T07:03:37.758Z,5.3
2017-01-12T07:04:42.962Z,5.28
2017-01-12T07:05:47.186Z,5.25
2017-01-12T07:06:53.393Z,5.19
2017-01-12T07:07:59.545Z,5.32
2017-01-12T07:09:05.700Z,5.27
2017-01-12T07:10:09.931Z,5.25
2017-01-12T07:11:14.153Z,5.07
2017-01-12T07:12:19.357Z,5.12
2017-01-12T07:13:25.630Z,5.16
2017-01-12T07:14:31.808Z,5.1
2017-01-12T07:15:36.984Z,5.07
2017-01-12T07:16:41.213Z,5.05
2017-01-12T07:17:46.413Z,4.98
2017-01-12T07:18:51.609Z,5.04
2017-01-12T07:19:57.791Z,4.96
2017-01-12T07:21:03.107Z,4.86
2017-01-12T07:22:08.624Z,4.89
2017-01-12T07:23:13.807Z,4.84
2017-01-12T07:24:18.042Z,4.88
2017-01-12T07:25:23.550Z,4.77
2017-01-12T07:26:28.755Z,4.8
2017-01-12T07:27:34.923Z,4.77
2017-01-12T07:28:40.124Z,4.73
2017-01-12T07:29:45.326Z,4.7
2017-01-12T07:30:51.506Z,4.7
2017-01-12T07:31:55.716Z,4.67
2017-01-12T07:33:01.881Z,4.64
2017-01-12T07:34:08.161Z,4.7
2017-01-12T07:35:14.333Z,4.65
2017-01-12T07:36:20.499Z,4.64
2017-01-12T07:37:25.727Z,4.58
2017-01-12T07:38:30.020Z,4.65
2017-01-12T07:39:34.227Z,4.72
2017-01-12T07:40:39.432Z,4.61
2017-01-12T07:41:43.654Z,4.67
2017-01-12T07:42:47.884Z,4.77
2017-01-12T07:43:54.064Z,4.83
2017-01-12T07:45:00.291Z,4.84
2017-01-12T07:46:04.529Z,4.91
2017-01-12T07:47:08.728Z,4.94
2017-01-12T07:48:14.048Z,4.94
2017-01-12T07:49:18.323Z,4.96
2017-01-12T07:50:23.491Z,4.98
2017-01-12T07:51:28.687Z,4.98
2017-01-12T07:52:33.006Z,4.95
2017-01-12T07:53:38.209Z,4.98
2017-01-12T07:54:43.428Z,4.94
2017-01-12T07:55:48.636Z,4.94
2017-01-12T07:56:52.861Z,4.92
2017-01-12T07:57:57.133Z,4.89
2017-01-12T07:59:03.294Z,4.84
2017-01-12T08:00:09.525Z,4.77
2017-01-12T08:01:13.688Z,4.84
2017-01-12T08:02:18.887Z,4.79
2017-01-12T08:03:25.058Z,4.79
2017-01-12T08:04:30.350Z,4.88
2017-01-12T08:05:34.581Z,4.8
2017-01-12T08:06:38.851Z,4.88
2017-01-12T08:07:45.057Z,4.91
2017-01-12T08:08:49.236Z,4.92
2017-01-12T08:09:55.405Z,4.91
2017-01-12T08:11:00.606Z,4.96
2017-01-12T08:12:03.840Z,4.96
2017-01-12T08:13:10.084Z,4.92
2017-01-12T08:14:16.252Z,4.92
2017-01-12T08:15:21.463Z,5.02
2017-01-12T08:16:27.626Z,5.04
2017-01-12T08:17:32.819Z,5.12
2017-01-12T08:18:38.015Z,5.14
2017-01-12T08:19:41.270Z,5.16
2017-01-12T08:20:45.497Z,5.22
2017-01-12T08:21:51.665Z,5.32
2017-01-12T08:22:56.860Z,5.34
2017-01-12T08:24:01.100Z,5.41
2017-01-12T08:25:07.271Z,5.49
2017-01-12T08:26:10.509Z,5.49
2017-01-12T08:27:15.705Z,5.41
2017-01-12T08:28:21.884Z,5.5
2017-01-12T08:29:28.084Z,5.55
2017-01-12T08:30:33.260Z,5.56
2017-01-12T08:31:39.424Z,5.57
2017-01-12T08:32:44.716Z,5.57
2017-01-12T08:33:50.902Z,5.67
2017-01-12T08:34:57.095Z,5.68
2017-01-12T08:36:01.271Z,5.7
2017-01-12T08:37:05.484Z,5.77
2017-01-12T08:38:11.640Z,5.82
2017-01-12T08:39:17.893Z,5.91
2017-01-12T08:40:24.061Z,5.89
2017-01-12T08:41:30.269Z,5.83
2017-01-12T08:42:34.511Z,5.78
2017-01-12T08:43:40.676Z,5.82
2017-01-12T08:44:45.877Z,5.7
2017-01-12T08:45:51.085Z,5.7
2017-01-12T08:46:54.326Z,5.66
2017-01-12T08:48:00.533Z,5.59
2017-01-12T08:49:06.704Z,5.59
2017-01-12T08:50:10.938Z,5.59
2017-01-12T08:51:17.103Z,5.53
2017-01-12T08:52:22.300Z,5.56
2017-01-12T08:53:28.467Z,5.66
2017-01-12T08:54:33.663Z,5.77
2017-01-12T08:55:39.862Z,5.98
2017-01-12T08:56:45.042Z,6.32
2017-01-12T08:57:50.270Z,6.46
2017-01-12T08:58:56.441Z,6.63
2017-01-12T09:00:01.661Z,6.83
2017-01-12T09:01:06.855Z,6.94
2017-01-12T09:02:13.024Z,7.17
2017-01-12T09:03:18.224Z,7.19
2017-01-12T09:04:24.395Z,7.24
2017-01-12T09:05:29.638Z,7.07
2017-01-12T09:06:35.775Z,7.02
2017-01-12T09:07:40.946Z,6.83
2017-01-12T09:08:46.205Z,6.81
2017-01-12T09:09:50.405Z,6.79
2017-01-12T09:10:56.576Z,6.69
2017-01-12T09:12:00.822Z,6.71
2017-01-12T09:13:05.057Z,6.83
2017-01-12T09:14:11.216Z,7.04
2017-01-12T09:15:15.420Z,7.35
2017-01-12T09:16:20.618Z,7.66
2017-01-12T09:17:24.866Z,7.82
2017-01-12T09:18:31.082Z,8.08
2017-01-12T09:19:37.218Z,8.21
2017-01-12T09:20:43.385Z,8.4
2017-01-12T09:21:48.584Z,8.39
2017-01-12T09:22:54.763Z,8.2
2017-01-12T09:23:59.961Z,8.26
2017-01-12T09:25:05.168Z,8.4
2017-01-12T09:26:11.363Z,8.26
2017-01-12T09:27:17.492Z,8.33
2017-01-12T09:28:22.664Z,8.45
2017-01-12T09:29:28.838Z,8.28
2017-01-12T09:30:34.097Z,8.18
2017-01-12T09:31:40.270Z,8.3
2017-01-12T09:32:45.465Z,8.47
2017-01-12T09:33:51.637Z,8.68
2017-01-12T09:34:57.808Z,8.86
2017-01-12T09:36:03.045Z,8.66
2017-01-12T09:37:08.217Z,8.44
2017-01-12T09:38:13.436Z,8.36
2017-01-12T09:39:18.714Z,8.11
2017-01-12T09:40:23.904Z,8.12
2017-01-12T09:41:29.115Z,8.03
2017-01-12T09:42:34.304Z,8.2
2017-01-12T09:43:39.469Z,8.26
2017-01-12T09:44:45.680Z,8.17
2017-01-12T09:45:50.845Z,8.25
2017-01-12T09:46:54.111Z,8.07
2017-01-12T09:47:59.450Z,7.93
2017-01-12T09:49:03.685Z,7.89
2017-01-12T09:50:07.912Z,7.78
2017-01-12T09:51:13.115Z,7.84
2017-01-12T09:52:18.318Z,7.89
2017-01-12T09:53:22.519Z,8.03
2017-01-12T09:54:27.798Z,8.15
2017-01-12T09:55:33.979Z,8.29
2017-01-12T09:56:40.155Z,8.48
2017-01-12T09:57:44.385Z,8.81
2017-01-12T09:58:50.557Z,8.87
2017-01-12T09:59:54.838Z,8.76
2017-01-12T10:01:01.008Z,8.6
2017-01-12T10:02:07.183Z,8.44
2017-01-12T10:03:13.356Z,8.26
2017-01-12T10:04:19.529Z,8.25
2017-01-12T10:05:23.775Z,8.1
2017-01-12T10:06:28.008Z,8.17
2017-01-12T10:07:34.186Z,8.07
2017-01-12T10:08:39.392Z,7.99
2017-01-12T10:09:44.617Z,7.9
2017-01-12T10:10:50.786Z,7.84
2017-01-12T10:11:55.098Z,7.84
2017-01-12T10:13:01.441Z,7.87
2017-01-12T10:14:07.635Z,7.69
2017-01-12T10:15:12.829Z,7.75
2017-01-12T10:16:18.994Z,7.75
2017-01-12T10:17:24.194Z,7.78
2017-01-12T10:18:29.418Z,7.82
2017-01-12T10:19:35.600Z,7.77
2017-01-12T10:20:40.803Z,7.6
2017-01-12T10:21:45.139Z,7.79
2017-01-12T10:22:51.299Z,7.96
2017-01-12T10:23:56.496Z,7.97
2017-01-12T10:25:00.707Z,7.9
2017-01-12T10:26:04.937Z,7.89
2017-01-12T10:27:09.278Z,7.9
2017-01-12T10:28:14.447Z,7.99
2017-01-12T10:29:19.633Z,8.04
2017-01-12T10:30:23.879Z,8.17
2017-01-12T10:31:29.075Z,8.14
2017-01-12T10:32:35.256Z,8.35
2017-01-12T10:33:39.558Z,8.45
2017-01-12T10:34:44.771Z,8.58
2017-01-12T10:35:49.958Z,8.76
2017-01-12T10:36:54.170Z,8.88
2017-01-12T10:38:00.335Z,8.84
2017-01-12T10:39:05.551Z,8.78
2017-01-12T10:40:11.774Z,8.83
2017-01-12T10:41:18.022Z,8.87
2017-01-12T10:42:24.217Z,8.65
2017-01-12T10:43:28.429Z,8.65
2017-01-12T10:44:33.638Z,8.51
2017-01-12T10:45:39.804Z,8.39
2017-01-12T10:46:45.990Z,8.36
2017-01-12T10:47:51.168Z,8.22
2017-01-12T10:48:57.337Z,8.22
2017-01-12T10:50:00.064Z,8.29
2017-01-12T10:51:06.250Z,8.35
2017-01-12T10:52:12.549Z,8.6
2017-01-12T10:53:16.916Z,8.73
2017-01-12T10:54:22.120Z,8.78
2017-01-12T10:55:27.327Z,8.68
2017-01-12T10:56:33.548Z,8.81
2017-01-12T10:57:38.755Z,8.69
2017-01-12T10:58:44.923Z,8.69
2017-01-12T10:59:51.220Z,8.65
2017-01-12T11:00:57.392Z,8.68
2017-01-12T11:02:02.629Z,8.53
2017-01-12T11:03:08.462Z,8.51
2017-01-12T11:04:13.710Z,8.48
2017-01-12T11:05:17.923Z,8.32
2017-01-12T11:06:23.179Z,8.36
2017-01-12T11:07:28.383Z,8.37
2017-01-12T11:08:34.543Z,8.26
2017-01-12T11:09:39.744Z,8.22
2017-01-12T11:10:44.948Z,8.25
2017-01-12T11:11:50.146Z,8.12
2017-01-12T11:12:55.353Z,8.22
2017-01-12T11:14:00.565Z,8.02
2017-01-12T11:15:05.762Z,7.94
2017-01-12T11:16:10.041Z,7.96
2017-01-12T11:17:14.254Z,7.85
2017-01-12T11:18:19.521Z,7.74
2017-01-12T11:19:24.677Z,7.75
2017-01-12T11:20:28.937Z,7.77
2017-01-12T11:21:32.205Z,7.69
2017-01-12T11:22:36.420Z,7.69
2017-01-12T11:23:42.589Z,7.62
2017-01-12T11:24:46.850Z,7.53
2017-01-12T11:25:52.061Z,7.53
2017-01-12T11:26:57.236Z,7.44
2017-01-12T11:28:03.403Z,7.37
2017-01-12T11:29:08.603Z,7.41
2017-01-12T11:30:13.833Z,7.4
2017-01-12T11:31:20.000Z,7.26
2017-01-12T11:32:25.199Z,7.26
2017-01-12T11:33:30.401Z,7.2
2017-01-12T11:34:34.640Z,7.26
2017-01-12T11:35:39.941Z,7.17
2017-01-12T11:36:45.114Z,7.13
2017-01-12T11:37:51.344Z,7.08
2017-01-12T11:38:55.583Z,7.05
2017-01-12T11:40:01.737Z,7.01
2017-01-12T11:41:07.910Z,7.08
2017-01-12T11:42:14.082Z,7.02
2017-01-12T11:43:20.247Z,7.04
2017-01-12T11:44:25.500Z,7.12
2017-01-12T11:45:31.681Z,7.08
2017-01-12T11:46:37.829Z,7.22
2017-01-12T11:47:42.159Z,7.13
2017-01-12T11:48:47.382Z,7.15
2017-01-12T11:49:53.570Z,7.16
2017-01-12T11:50:58.792Z,7.15
2017-01-12T11:52:03.115Z,7.15
2017-01-12T11:53:08.283Z,7.22
2017-01-12T11:54:13.522Z,7.17
2017-01-12T11:55:18.710Z,7.08
2017-01-12T11:56:23.921Z,7.05
2017-01-12T11:57:29.132Z,7.04
2017-01-12T11:58:33.343Z,7.05
2017-01-12T11:59:38.537Z,7.08
2017-01-12T12:00:43.740Z,7.12
2017-01-12T12:01:48.969Z,7.15
2017-01-12T12:02:54.111Z,7.05
2017-01-12T12:03:59.334Z,7.13
2017-01-12T12:05:05.497Z,7.19
2017-01-12T12:06:09.744Z,7.13
2017-01-12T12:07:15.932Z,7.12
2017-01-12T12:08:22.113Z,7.09
2017-01-12T12:09:26.283Z,7.04
2017-01-12T12:10:32.448Z,7.01
2017-01-12T12:11:36.664Z,7.07
2017-01-12T12:12:42.859Z,6.95
2017-01-12T12:13:49.027Z,7.02
2017-01-12T12:14:53.260Z,7.04
2017-01-12T12:15:57.492Z,7.07
2017-01-12T12:17:03.655Z,6.9
2017-01-12T12:18:09.876Z,7.04
2017-01-12T12:19:15.120Z,6.95
2017-01-12T12:20:21.289Z,7.02
2017-01-12T12:21:27.449Z,7.02
2017-01-12T12:22:31.661Z,7.09
2017-01-12T12:23:36.860Z,7.09
2017-01-12T12:24:42.111Z,7.07
2017-01-12T12:25:47.359Z,7.12
2017-01-12T12:26:51.548Z,7.12
2017-01-12T12:27:55.756Z,7.13
2017-01-12T12:29:00.014Z,7.12
2017-01-12T12:30:05.152Z,7.23
2017-01-12T12:31:09.431Z,7.19
2017-01-12T12:32:14.596Z,7.17
2017-01-12T12:33:19.792Z,7.16
2017-01-12T12:34:23.999Z,7.23
2017-01-12T12:35:29.339Z,7.23
2017-01-12T12:36:34.568Z,7.2
2017-01-12T12:37:40.751Z,7.2
2017-01-12T12:38:45.984Z,7.13
2017-01-12T12:39:51.192Z,7.16
2017-01-12T12:40:57.355Z,7.16
2017-01-12T12:42:03.520Z,7.23
2017-01-12T12:43:09.769Z,7.35
2017-01-12T12:44:13.031Z,7.37
2017-01-12T12:45:19.209Z,7.37
2017-01-12T12:46:23.406Z,7.44
2017-01-12T12:47:26.648Z,7.38
2017-01-12T12:48:32.931Z,7.38
2017-01-12T12:49:39.101Z,7.45
2017-01-12T12:50:43.311Z,7.53
2017-01-12T12:51:48.507Z,7.53
2017-01-12T12:52:52.764Z,7.49
2017-01-12T12:53:58.002Z,7.47
2017-01-12T12:55:03.160Z,7.47
2017-01-12T12:56:07.393Z,7.53
2017-01-12T12:57:12.598Z,7.55
2017-01-12T12:58:18.764Z,7.49
2017-01-12T12:59:24.006Z,7.63
2017-01-12T13:00:30.124Z,7.67
2017-01-12T13:01:36.366Z,7.69
2017-01-12T13:02:41.542Z,7.67
2017-01-12T13:03:46.794Z,7.59
2017-01-12T13:04:51.977Z,7.58
2017-01-12T13:05:58.147Z,7.6
2017-01-12T13:07:02.434Z,7.66
2017-01-12T13:08:06.640Z,7.62
2017-01-12T13:09:10.851Z,7.69
2017-01-12T13:10:15.095Z,7.75
2017-01-12T13:11:21.264Z,7.69
2017-01-12T13:12:27.487Z,7.66
2017-01-12T13:13:33.650Z,7.66
2017-01-12T13:14:39.822Z,7.56
2017-01-12T13:15:45.988Z,7.59
2017-01-12T13:16:52.166Z,7.59
2017-01-12T13:17:58.332Z,7.66
2017-01-12T13:19:02.660Z,7.62
2017-01-12T13:20:08.832Z,7.67
2017-01-12T13:21:13.091Z,7.63
2017-01-12T13:22:18.286Z,7.62
2017-01-12T13:23:23.508Z,7.69
2017-01-12T13:24:28.718Z,7.58
2017-01-12T13:25:33.927Z,7.56
2017-01-12T13:26:38.158Z,7.59
2017-01-12T13:27:42.400Z,7.4
2017-01-12T13:28:47.602Z,7.37
2017-01-12T13:29:52.793Z,7.31
2017-01-12T13:30:58.008Z,7.34
2017-01-12T13:32:03.165Z,7.38
2017-01-12T13:33:08.337Z,7.38
2017-01-12T13:34:12.584Z,7.41
2017-01-12T13:35:18.762Z,7.32
2017-01-12T13:36:24.961Z,7.32
2017-01-12T13:37:30.134Z,7.35
2017-01-12T13:38:36.417Z,7.23
2017-01-12T13:39:40.658Z,7.32
2017-01-12T13:40:46.830Z,7.31
2017-01-12T13:41:52.993Z,7.31
2017-01-12T13:42:58.167Z,7.42
2017-01-12T13:44:01.434Z,7.38
2017-01-12T13:45:06.609Z,7.55
2017-01-12T13:46:11.907Z,7.55
2017-01-12T13:47:16.110Z,7.66
2017-01-12T13:48:20.321Z,7.69
2017-01-12T13:49:26.489Z,7.72
2017-01-12T13:50:32.665Z,7.71
2017-01-12T13:51:38.838Z,7.71
2017-01-12T13:52:44.998Z,7.63
2017-01-12T13:53:51.217Z,7.59
2017-01-12T13:54:57.385Z,7.62
2017-01-12T13:56:02.561Z,7.59
2017-01-12T13:57:07.733Z,7.5
2017-01-12T13:58:13.935Z,7.52
2017-01-12T13:59:20.111Z,7.4
2017-01-12T14:00:25.318Z,7.52
2017-01-12T14:01:29.550Z,7.5
2017-01-12T14:02:34.762Z,7.53
2017-01-12T14:03:39.964Z,7.58
2017-01-12T14:04:45.165Z,7.52
2017-01-12T14:05:49.423Z,7.5
2017-01-12T14:06:54.567Z,7.45
2017-01-12T14:07:58.846Z,7.38
2017-01-12T14:09:04.984Z,7.45
2017-01-12T14:10:10.179Z,7.45
2017-01-12T14:11:15.380Z,7.38
2017-01-12T14:12:20.579Z,7.41
2017-01-12T14:13:24.816Z,7.42
2017-01-12T14:14:30.048Z,7.35
2017-01-12T14:15:35.249Z,7.2
2017-01-12T14:16:39.489Z,7.35
2017-01-12T14:17:44.659Z,7.38
2017-01-12T14:18:49.866Z,7.37
2017-01-12T14:19:56.036Z,7.4
2017-01-12T14:21:00.256Z,7.32
2017-01-12T14:22:05.490Z,7.29
2017-01-12T14:23:10.690Z,7.26
2017-01-12T14:24:14.932Z,7.23
2017-01-12T14:25:21.160Z,7.13
2017-01-12T14:26:25.372Z,7.17
2017-01-12T14:27:31.536Z,7.16
2017-01-12T14:28:36.736Z,7.07
2017-01-12T14:29:42.900Z,7.13
2017-01-12T14:30:48.109Z,7.12
2017-01-12T14:31:54.285Z,7.13
2017-01-12T14:32:59.484Z,7.01
2017-01-12T14:34:03.715Z,7.04
2017-01-12T14:35:08.909Z,7.05